Time;durP1;ratioP1;P1;durP2;ratioP2;P2;SDS_P1;SDS_P2;PMS_P1;PMS_P2;Temp;Humidity;BMP_temperature;BMP_pressure;BME280_temperature;BME280_humidity;BME280_pressure;Samples;Min_cycle;Max_cycle;Signal;HPM_P1;HPM_P2
2022/12/15 00:39:15;;;;;;;5.63;3.55;;;-2.50;99.90;;;;;;5033709;28;20055;-60
2022/12/15 00:41:42;;;;;;;7.25;4.03;;;-2.60;99.90;;;;;;5032891;28;20127;-61
2022/12/15 00:44:11;;;;;;;7.53;4.15;;;-2.60;99.90;;;;;;5033608;28;20057;-61
2022/12/15 00:46:55;;;;;;;8.73;4.47;;;-2.70;99.90;;;;;;5031999;28;20495;-61
2022/12/15 01:22:27;;;;;;;7.32;3.92;;;-2.50;99.90;;;;;;5054611;28;20181;-61
2022/12/15 01:24:54;;;;;;;9.18;4.07;;;-2.50;99.90;;;;;;5035848;28;20051;-64
2022/12/15 01:27:20;;;;;;;7.28;4.10;;;-2.40;99.90;;;;;;5036688;28;20079;-60
2022/12/15 01:29:47;;;;;;;7.03;3.72;;;-2.30;99.90;;;;;;5035795;28;20045;-62
2022/12/15 01:32:16;;;;;;;6.05;3.58;;;-2.30;99.90;;;;;;5036495;28;20049;-61
2022/12/15 01:34:43;;;;;;;6.65;3.03;;;-2.30;99.90;;;;;;5054068;28;20099;-62
2022/12/15 01:37:10;;;;;;;5.53;3.15;;;-2.20;99.90;;;;;;5035862;28;20048;-62
2022/12/15 01:42:21;;;;;;;5.85;3.33;;;-2.30;99.90;;;;;;5036271;28;20393;-62
2022/12/15 01:44:52;;;;;;;10.00;3.58;;;-2.30;99.90;;;;;;5036056;28;20057;-62
2022/12/15 01:47:25;;;;;;;4.47;2.83;;;-2.30;99.90;;;;;;5036467;28;20068;-61
2022/12/15 01:49:54;;;;;;;8.82;3.25;;;-2.30;99.90;;;;;;5053795;28;20052;-62
2022/12/15 01:52:21;;;;;;;6.03;3.38;;;-2.30;99.90;;;;;;5034989;28;20057;-62
2022/12/15 01:54:52;;;;;;;5.72;3.47;;;-2.30;99.90;;;;;;5053710;28;20126;-62
2022/12/15 01:57:22;;;;;;;6.72;3.63;;;-2.40;99.90;;;;;;5034276;28;20408;-61
2022/12/15 01:59:51;;;;;;;;;;;-2.40;99.90;;;;;;5053712;28;20048;-63
2022/12/15 02:02:22;;;;;;;9.02;4.20;;;-2.50;99.90;;;;;;5035997;28;19924;-62
2022/12/15 02:04:51;;;;;;;8.38;4.60;;;-2.50;99.90;;;;;;5034795;28;20064;-62
2022/12/15 02:07:18;;;;;;;8.25;4.22;;;-2.60;99.90;;;;;;5035473;28;20567;-62
2022/12/15 02:09:48;;;;;;;12.07;5.65;;;-2.50;99.90;;;;;;5053227;28;20052;-62
2022/12/15 02:12:25;;;;;;;7.63;4.80;;;-2.60;99.90;;;;;;5043216;28;20421;-61
2022/12/15 02:15:06;;;;;;;7.47;5.25;;;-2.60;99.90;;;;;;5053407;28;20492;-61
2022/12/15 02:17:44;;;;;;;11.18;6.28;;;-2.60;99.90;;;;;;5051849;28;20405;-62
2022/12/15 02:20:40;;;;;;;11.57;5.68;;;-2.70;99.90;;;;;;5051106;28;20115;-61
2022/12/15 02:23:47;;;;;;;9.45;5.22;;;-2.70;99.90;;;;;;5051662;28;20574;-62
2022/12/15 02:26:53;;;;;;;8.48;5.55;;;-2.80;99.90;;;;;;5050886;28;20044;-62
2022/12/15 02:29:50;;;;;;;10.32;4.95;;;-2.80;99.90;;;;;;5051849;28;20041;-62
2022/12/15 02:32:26;;;;;;;8.20;5.43;;;-2.90;99.90;;;;;;5052156;28;20045;-61
2022/12/15 02:34:57;;;;;;;13.95;5.65;;;-2.90;99.90;;;;;;5045510;28;20052;-62
2022/12/15 02:37:29;;;;;;;9.95;5.68;;;-2.90;99.90;;;;;;5034503;28;20044;-62
2022/12/15 02:39:57;;;;;;;11.85;6.70;;;-2.90;99.90;;;;;;5033604;28;20556;-61
2022/12/15 02:42:26;;;;;;;12.88;6.38;;;-2.90;99.90;;;;;;5032290;28;20057;-62
2022/12/15 02:44:56;;;;;;;10.32;5.63;;;-2.90;99.90;;;;;;5053073;28;20049;-62
2022/12/15 02:47:32;;;;;;;11.02;6.28;;;-2.90;99.90;;;;;;5032999;28;20055;-62
2022/12/15 02:50:19;;;;;;;11.52;5.90;;;-2.90;99.90;;;;;;5035287;28;20052;-62
2022/12/15 02:53:08;;;;;;;9.60;5.85;;;-2.90;99.90;;;;;;5033536;28;20055;-63
2022/12/15 02:55:45;;;;;;;10.45;6.13;;;-3.00;99.90;;;;;;5052347;28;20118;-61
2022/12/15 02:58:19;;;;;;;9.70;6.43;;;-3.00;99.90;;;;;;5052688;28;20052;-61
2022/12/15 03:00:52;;;;;;;13.98;5.60;;;-3.00;99.90;;;;;;5050627;28;20040;-61
2022/12/15 03:03:22;;;;;;;10.68;6.47;;;-2.30;99.90;;;;;;5035015;28;20057;-61
2022/12/15 03:05:52;;;;;;;15.90;5.30;;;-3.10;99.90;;;;;;5035102;28;20048;-61
2022/12/15 03:08:19;;;;;;;9.73;5.28;;;-3.10;99.90;;;;;;5033031;28;20044;-60
2022/12/15 03:10:47;;;;;;;10.10;5.40;;;-3.20;99.90;;;;;;5037780;28;20056;-61
2022/12/15 03:13:14;;;;;;;13.15;6.13;;;-3.20;99.90;;;;;;5052367;28;20404;-62
2022/12/15 03:15:41;;;;;;;9.73;5.05;;;-3.30;99.90;;;;;;5049965;28;20044;-62
2022/12/15 03:18:08;;;;;;;8.13;4.63;;;-3.30;99.90;;;;;;5050139;28;20166;-61
2022/12/15 03:20:36;;;;;;;8.07;4.93;;;-3.30;99.90;;;;;;5050542;28;20060;-61
2022/12/15 03:23:03;;;;;;;8.68;4.90;;;-3.30;99.90;;;;;;5049897;28;20056;-61
2022/12/15 03:25:30;;;;;;;10.65;4.45;;;-3.30;99.90;;;;;;5050381;28;20063;-62
2022/12/15 03:27:57;;;;;;;8.07;4.15;;;-3.30;99.90;;;;;;5050369;28;20049;-61
2022/12/15 03:30:24;;;;;;;8.88;4.03;;;-3.30;99.90;;;;;;5051616;28;20492;-61
2022/12/15 03:32:51;;;;;;;9.60;3.40;;;-3.30;99.90;;;;;;5050243;28;20090;-61
2022/12/15 03:35:18;;;;;;;8.73;4.20;;;-3.30;99.90;;;;;;5052000;28;20607;-62
2022/12/15 03:37:46;;;;;;;9.70;4.30;;;-3.20;99.90;;;;;;5049903;28;20071;-62
2022/12/15 03:40:13;;;;;;;7.55;4.00;;;-3.20;99.90;;;;;;5050053;28;20052;-61
2022/12/15 03:42:49;;;;;;;7.13;4.05;;;-3.20;99.90;;;;;;5049815;28;20057;-61
2022/12/15 03:45:18;;;;;;;5.93;3.35;;;-3.20;99.90;;;;;;5051789;28;20063;-62
2022/12/15 03:47:45;;;;;;;7.28;3.65;;;-3.20;99.90;;;;;;5032341;28;20450;-60
2022/12/15 03:50:15;;;;;;;7.40;3.17;;;-3.20;99.90;;;;;;5034448;28;20075;-61
2022/12/15 03:52:41;;;;;;;8.10;3.15;;;-3.20;99.90;;;;;;5051218;28;20053;-61
2022/12/15 03:55:11;;;;;;;8.00;3.17;;;-3.10;99.90;;;;;;5034778;28;20111;-62
2022/12/15 03:57:38;;;;;;;5.82;2.55;;;-3.10;99.90;;;;;;5051267;28;20083;-61
2022/12/15 04:00:07;;;;;;;6.03;2.55;;;-3.20;99.90;;;;;;5033986;28;20508;-61
2022/12/15 04:02:34;;;;;;;4.43;2.85;;;-3.20;99.90;;;;;;5034150;28;20099;-61
2022/12/15 04:05:01;;;;;;;8.93;2.80;;;-3.20;99.90;;;;;;5033889;28;20052;-62
2022/12/15 04:07:28;;;;;;;8.65;2.90;;;-3.20;99.90;;;;;;5032021;28;20044;-63
2022/12/15 04:09:55;;;;;;;11.40;3.40;;;-3.30;99.90;;;;;;5032092;28;20056;-63
2022/12/15 04:12:23;;;;;;;4.18;2.33;;;-3.30;99.90;;;;;;5027257;28;20395;-63
2022/12/15 04:14:50;;;;;;;5.15;2.20;;;-3.20;99.90;;;;;;5014018;28;20061;-62
2022/12/15 04:17:17;;;;;;;8.77;2.28;;;-3.20;99.90;;;;;;5031272;28;20053;-67
2022/12/15 04:22:28;;;;;;;5.22;2.20;;;-2.90;99.90;;;;;;5021657;28;20513;-62
2022/12/15 05:33:38;;;;;;;11.23;4.45;;;-3.10;99.90;;;;;;5034840;28;20542;-60
2022/12/15 05:36:06;;;;;;;9.85;3.88;;;-3.10;99.90;;;;;;5034483;28;20408;-61
2022/12/15 05:38:32;;;;;;;7.45;3.75;;;-3.00;99.90;;;;;;5044499;28;20389;-61
2022/12/15 05:41:00;;;;;;;11.25;4.75;;;-2.90;99.90;;;;;;5029249;28;20070;-61
2022/12/15 05:43:28;;;;;;;8.80;4.10;;;-2.90;99.90;;;;;;5029013;28;20567;-61
2022/12/15 05:45:55;;;;;;;7.72;4.45;;;-3.00;99.90;;;;;;5028320;28;20059;-61
2022/12/15 05:48:22;;;;;;;6.95;4.22;;;-3.00;99.90;;;;;;5034720;28;20435;-62
2022/12/15 05:50:50;;;;;;;10.80;4.10;;;-3.00;99.90;;;;;;5029040;28;20052;-61
2022/12/15 05:53:17;;;;;;;8.98;3.90;;;-3.00;99.90;;;;;;5027633;28;20053;-61
2022/12/15 05:55:44;;;;;;;9.30;4.22;;;-2.90;99.90;;;;;;5046819;28;20041;-61
2022/12/15 05:58:11;;;;;;;7.15;4.15;;;-2.90;99.90;;;;;;5030984;28;20049;-61
2022/12/15 06:00:38;;;;;;;11.85;4.00;;;-2.60;99.90;;;;;;5049858;28;20408;-61
2022/12/15 06:03:05;;;;;;;8.10;4.85;;;-2.70;99.90;;;;;;5047049;28;20048;-61
2022/12/15 06:05:32;;;;;;;5.93;4.40;;;-2.50;99.90;;;;;;5025568;28;20053;-61
2022/12/15 06:08:01;;;;;;;10.05;4.93;;;-2.40;99.90;;;;;;5027826;28;20054;-61
2022/12/15 06:10:28;;;;;;;7.55;4.68;;;-2.40;99.90;;;;;;5027360;28;20057;-61
2022/12/15 06:12:55;;;;;;;9.15;5.10;;;-2.30;99.90;;;;;;5029178;28;20053;-62
2022/12/15 06:15:22;;;;;;;8.63;4.97;;;-2.30;99.90;;;;;;5030745;28;20052;-60
2022/12/15 06:17:49;;;;;;;7.00;5.18;;;-2.20;99.90;;;;;;5034453;28;20056;-61
2022/12/15 06:20:17;;;;;;;9.55;6.00;;;-2.20;99.90;;;;;;5044042;28;20053;-61
2022/12/15 06:22:44;;;;;;;10.57;5.45;;;-2.20;99.90;;;;;;5047001;28;20056;-61
2022/12/15 06:25:12;;;;;;;9.70;5.00;;;-2.10;99.90;;;;;;5047590;28;20049;-62
2022/12/15 06:27:39;;;;;;;11.95;5.25;;;-2.10;99.90;;;;;;5028691;28;20065;-60
2022/12/15 06:30:06;;;;;;;12.60;5.32;;;-2.10;99.90;;;;;;5030922;28;20049;-61
2022/12/15 06:32:35;;;;;;;9.50;5.47;;;-2.10;99.90;;;;;;5029291;28;20067;-60
2022/12/15 06:35:02;;;;;;;11.20;5.70;;;-2.10;99.90;;;;;;5030552;28;20158;-61
2022/12/15 06:37:29;;;;;;;11.38;5.25;;;-2.10;99.90;;;;;;5031127;28;20049;-61
2022/12/15 06:39:56;;;;;;;8.68;5.25;;;-2.10;99.90;;;;;;5027004;28;20538;-62
2022/12/15 06:42:24;;;;;;;7.70;5.13;;;-2.10;99.90;;;;;;5027807;28;20056;-61
2022/12/15 06:44:51;;;;;;;10.82;5.80;;;-2.10;99.90;;;;;;5027014;28;20061;-61
2022/12/15 06:47:18;;;;;;;8.32;5.43;;;-2.10;99.90;;;;;;5028840;28;20059;-62
2022/12/15 06:49:45;;;;;;;11.70;6.10;;;-2.10;99.90;;;;;;5029164;28;20152;-62
2022/12/15 06:52:12;;;;;;;11.20;6.88;;;-2.10;99.90;;;;;;5046250;28;20053;-62
2022/12/15 06:54:39;;;;;;;7.13;5.40;;;-2.10;99.90;;;;;;5028158;28;20060;-62
2022/12/15 06:57:06;;;;;;;8.02;5.57;;;-2.10;99.90;;;;;;5049786;28;20520;-62
2022/12/15 06:59:34;;;;;;;12.32;6.30;;;-2.10;99.90;;;;;;5030525;28;20052;-61
2022/12/15 07:02:01;;;;;;;9.15;6.07;;;-2.10;99.90;;;;;;5034391;28;20061;-62
2022/12/15 07:04:29;;;;;;;8.77;6.03;;;-2.10;99.90;;;;;;5046932;28;20048;-62
2022/12/15 07:06:56;;;;;;;13.10;6.43;;;-2.00;99.90;;;;;;5033935;28;20055;-62
2022/12/15 07:09:24;;;;;;;8.45;5.18;;;-2.00;99.90;;;;;;5033397;28;20045;-61
2022/12/15 07:11:51;;;;;;;13.55;6.53;;;-2.00;99.90;;;;;;5025802;28;20076;-62
2022/12/15 07:14:18;;;;;;;15.13;6.68;;;-2.00;99.90;;;;;;5014766;28;20084;-61
2022/12/15 07:16:47;;;;;;;9.82;6.20;;;-1.90;99.90;;;;;;5013951;28;20510;-61
2022/12/15 07:19:14;;;;;;;13.55;6.10;;;-1.90;99.90;;;;;;5014125;28;20123;-62
2022/12/15 07:21:41;;;;;;;11.02;6.22;;;-1.90;99.90;;;;;;5014001;28;20059;-61
2022/12/15 07:24:10;;;;;;;9.25;5.68;;;-1.90;99.90;;;;;;5032372;28;20053;-62
2022/12/15 07:26:37;;;;;;;9.43;6.07;;;-1.90;99.90;;;;;;5014382;28;20465;-61
2022/12/15 07:29:05;;;;;;;11.07;6.30;;;-1.70;99.90;;;;;;5013967;28;20100;-61
2022/12/15 07:31:32;;;;;;;10.30;6.68;;;-1.80;99.90;;;;;;5014392;28;20054;-62
2022/12/15 07:34:00;;;;;;;9.30;6.03;;;-1.70;99.90;;;;;;5029653;28;20493;-61
2022/12/15 07:36:28;;;;;;;9.10;5.65;;;-1.80;99.90;;;;;;5011322;28;20057;-62
2022/12/15 07:39:00;;;;;;;9.75;6.57;;;-1.70;99.90;;;;;;5014647;28;20099;-63
2022/12/15 07:41:27;;;;;;;10.85;6.93;;;-1.70;99.90;;;;;;5012243;28;20046;-61
2022/12/15 07:43:54;;;;;;;10.13;6.32;;;-1.70;99.90;;;;;;5031420;28;20049;-62
2022/12/15 07:46:22;;;;;;;8.90;6.43;;;-1.70;99.90;;;;;;5031620;28;20046;-62
2022/12/15 07:48:49;;;;;;;12.77;6.97;;;-1.60;99.90;;;;;;5013932;28;20092;-63
2022/12/15 07:51:19;;;;;;;10.00;5.80;;;-1.60;99.90;;;;;;5013240;28;20056;-62
2022/12/15 07:53:46;;;;;;;14.10;6.55;;;-1.60;99.90;;;;;;5031811;28;20452;-62
2022/12/15 07:56:14;;;;;;;12.35;5.93;;;-1.60;99.90;;;;;;5012646;28;20060;-62
2022/12/15 07:58:41;;;;;;;9.13;5.88;;;-1.50;99.90;;;;;;5013385;28;20061;-62
2022/12/15 08:01:11;;;;;;;11.10;6.97;;;-1.50;99.90;;;;;;5013969;28;20478;-62
2022/12/15 08:03:38;;;;;;;9.47;5.73;;;-1.50;99.90;;;;;;5031754;28;20045;-62
2022/12/15 08:06:08;;;;;;;9.23;5.68;;;-1.40;99.90;;;;;;5012224;28;20061;-62
2022/12/15 08:08:37;;;;;;;11.32;6.53;;;-1.40;99.90;;;;;;5029916;28;20046;-62
2022/12/15 08:11:05;;;;;;;8.82;5.78;;;-1.30;99.90;;;;;;5014884;28;20456;-62
2022/12/15 08:13:33;;;;;;;13.80;7.07;;;-1.20;99.90;;;;;;5033537;28;20064;-61
2022/12/15 08:16:01;;;;;;;12.13;6.20;;;-1.10;99.90;;;;;;5033362;28;20060;-62
2022/12/15 08:18:28;;;;;;;9.48;5.65;;;0.20;99.90;;;;;;5032273;28;20053;-62
2022/12/15 08:20:55;;;;;;;10.23;6.30;;;-0.50;99.90;;;;;;5051069;28;20041;-63
2022/12/15 08:23:22;;;;;;;17.17;5.43;;;-0.40;99.90;;;;;;5031757;28;20132;-63
2022/12/15 08:25:51;;;;;;;10.57;6.50;;;-0.10;99.90;;;;;;5032581;28;20053;-64
2022/12/15 08:28:18;;;;;;;10.70;5.47;;;0.20;99.90;;;;;;5051556;28;20041;-63
2022/12/15 08:30:45;;;;;;;8.88;5.43;;;0.70;99.90;;;;;;5036786;28;20048;-62
2022/12/15 08:33:13;;;;;;;11.45;5.10;;;1.20;99.90;;;;;;5035900;28;20114;-63
2022/12/15 08:35:40;;;;;;;13.35;5.57;;;1.50;99.90;;;;;;5064145;28;20049;-63
2022/12/15 08:38:07;;;;;;;9.82;6.38;;;2.10;99.90;;;;;;5036997;28;20067;-63
2022/12/15 08:40:34;;;;;;;9.30;5.38;;;2.70;99.90;;;;;;5035690;28;20052;-63
2022/12/15 08:43:03;;;;;;;8.43;4.95;;;3.50;99.90;;;;;;5053240;28;20056;-62
2022/12/15 08:45:30;;;;;;;9.13;5.28;;;3.50;99.90;;;;;;5036963;28;20056;-61
2022/12/15 08:47:57;;;;;;;7.07;4.22;;;3.90;99.90;;;;;;5053130;28;20048;-63
2022/12/15 08:50:24;;;;;;;8.85;4.80;;;4.30;99.90;;;;;;5054612;28;20156;-63
2022/12/15 08:52:51;;;;;;;6.38;4.47;;;4.60;99.90;;;;;;5037172;28;20045;-62
2022/12/15 08:55:18;;;;;;;6.20;4.05;;;5.00;99.90;;;;;;5053727;28;20057;-61
2022/12/15 08:57:44;;;;;;;8.40;5.13;;;5.50;99.90;;;;;;5036920;28;20056;-62
2022/12/15 09:00:14;;;;;;;9.98;4.75;;;6.00;99.90;;;;;;5035838;28;20045;-62
2022/12/15 09:02:41;;;;;;;8.55;4.10;;;6.50;99.90;;;;;;5062393;28;20057;-62
2022/12/15 09:05:09;;;;;;;6.95;4.47;;;7.60;99.90;;;;;;5036474;28;20049;-62
2022/12/15 09:07:36;;;;;;;6.15;4.40;;;7.50;99.90;;;;;;5036040;28;20061;-62
2022/12/15 09:10:03;;;;;;;8.07;4.32;;;7.80;99.90;;;;;;5052505;28;20052;-62
2022/12/15 09:12:30;;;;;;;7.40;4.35;;;6.50;99.90;;;;;;5034747;28;20064;-62
2022/12/15 09:14:57;;;;;;;5.95;3.72;;;6.20;99.90;;;;;;5052895;28;20048;-62
2022/12/15 09:17:26;;;;;;;8.40;3.97;;;5.80;99.90;;;;;;5054236;28;20049;-62
2022/12/15 09:19:53;;;;;;;5.40;4.10;;;5.10;99.90;;;;;;5035850;28;20053;-63
2022/12/15 09:22:20;;;;;;;9.55;4.20;;;4.30;99.90;;;;;;5035395;28;20119;-62
2022/12/15 09:24:49;;;;;;;8.85;4.60;;;3.80;99.90;;;;;;5035881;28;20511;-64
2022/12/15 09:27:16;;;;;;;12.60;5.28;;;3.40;99.90;;;;;;5036457;28;20052;-63
2022/12/15 09:29:43;;;;;;;13.05;4.93;;;3.20;99.90;;;;;;5036373;28;20044;-63
2022/12/15 09:32:09;;;;;;;10.23;4.85;;;3.30;99.90;;;;;;5054543;28;20045;-63
2022/12/15 09:34:38;;;;;;;8.55;4.45;;;4.20;99.90;;;;;;5054193;28;20056;-62
2022/12/15 09:37:05;;;;;;;8.05;4.22;;;4.70;99.90;;;;;;5035797;28;20049;-62
2022/12/15 09:39:32;;;;;;;9.02;4.60;;;5.30;99.90;;;;;;5036542;28;20471;-62
2022/12/15 09:42:01;;;;;;;9.20;4.63;;;6.30;99.90;;;;;;5035097;28;20535;-62
2022/12/15 09:44:30;;;;;;;8.18;4.80;;;8.00;99.90;;;;;;5033909;28;20408;-62
2022/12/15 09:47:16;;;;;;;7.93;4.87;;;8.50;99.90;;;;;;5053972;28;20509;-62
2022/12/15 09:49:53;;;;;;;7.93;4.45;;;9.10;99.90;;;;;;5034849;28;20314;-62
2022/12/15 09:52:23;;;;;;;7.65;4.28;;;10.10;99.90;;;;;;5043154;28;20409;-62
2022/12/15 09:54:51;;;;;;;6.90;3.90;;;9.90;99.90;;;;;;5026081;28;20056;-62
2022/12/15 09:57:31;;;;;;;10.38;4.43;;;9.50;99.90;;;;;;5043520;28;20052;-62
2022/12/15 10:00:20;;;;;;;7.65;4.50;;;10.70;99.90;;;;;;5028949;28;20056;-62
2022/12/15 10:03:10;;;;;;;11.48;5.22;;;10.60;99.70;;;;;;5027898;28;20077;-62
2022/12/15 10:05:53;;;;;;;9.98;4.75;;;10.50;98.60;;;;;;5030533;28;20056;-62
2022/12/15 10:08:21;;;;;;;11.13;5.00;;;11.40;99.00;;;;;;5031388;28;20079;-62
2022/12/15 10:10:53;;;;;;;7.22;4.60;;;11.20;96.40;;;;;;5028381;28;20049;-63
2022/12/15 10:13:24;;;;;;;9.50;4.82;;;11.50;97.80;;;;;;5030422;28;20052;-63
2022/12/15 10:15:59;;;;;;;12.20;5.00;;;11.80;97.30;;;;;;5043092;28;20041;-63
2022/12/15 10:18:32;;;;;;;6.78;4.20;;;11.70;94.80;;;;;;5051534;28;20049;-63
2022/12/15 10:21:02;;;;;;;7.82;5.13;;;11.90;97.00;;;;;;5046247;28;20480;-63
2022/12/15 10:23:29;;;;;;;8.43;4.70;;;11.70;94.90;;;;;;5047804;28;20045;-63
2022/12/15 10:26:01;;;;;;;7.63;4.22;;;11.50;96.40;;;;;;5028169;28;20057;-63
2022/12/15 10:28:51;;;;;;;6.68;4.63;;;11.40;94.20;;;;;;5028991;28;20663;-63
2022/12/15 10:31:24;;;;;;;7.68;4.28;;;11.30;94.00;;;;;;5045178;28;20041;-63
2022/12/15 10:33:57;;;;;;;7.95;4.18;;;11.70;95.10;;;;;;5028288;28;20059;-63
2022/12/15 10:36:25;;;;;;;7.25;4.35;;;11.90;94.40;;;;;;5044549;28;20503;-63
2022/12/15 10:38:52;;;;;;;8.05;4.82;;;11.80;92.60;;;;;;5047200;28;20063;-63
2022/12/15 10:41:21;;;;;;;7.53;4.47;;;12.00;93.60;;;;;;5029116;28;20049;-63
2022/12/15 10:43:50;;;;;;;6.70;4.30;;;11.40;92.70;;;;;;5030390;28;20075;-64
2022/12/15 10:46:19;;;;;;;9.30;4.43;;;12.70;94.70;;;;;;5029195;28;20057;-64
2022/12/15 10:48:48;;;;;;;8.82;4.20;;;12.20;93.80;;;;;;5024931;28;20094;-64
2022/12/15 10:51:21;;;;;;;6.78;4.07;;;12.70;93.00;;;;;;5046351;28;20044;-63
2022/12/15 10:53:52;;;;;;;8.00;4.65;;;12.50;92.60;;;;;;5025759;28;20448;-64
2022/12/15 10:56:22;;;;;;;7.97;4.85;;;12.40;92.80;;;;;;5046789;28;20053;-63
2022/12/15 10:58:52;;;;;;;9.05;4.60;;;13.00;92.20;;;;;;5031380;28;20048;-63
2022/12/15 11:01:24;;;;;;;7.07;4.40;;;12.40;90.90;;;;;;5052646;28;20103;-63
2022/12/15 11:03:52;;;;;;;6.60;4.03;;;13.20;92.00;;;;;;5045147;28;20132;-63
2022/12/15 11:06:21;;;;;;;7.82;4.18;;;13.20;90.60;;;;;;5028417;28;20080;-62
2022/12/15 11:08:51;;;;;;;8.02;3.85;;;12.90;91.70;;;;;;5049276;28;20489;-63
2022/12/15 11:14:18;;;;;;;7.70;3.85;;;12.80;90.60;;;;;;5044268;28;20060;-63
2022/12/15 11:16:52;;;;;;;7.60;3.63;;;13.60;90.50;;;;;;5026993;28;20064;-63
2022/12/15 11:19:33;;;;;;;5.25;4.00;;;13.70;89.20;;;;;;5047204;28;20055;-63
2022/12/15 11:22:08;;;;;;;10.68;4.10;;;13.40;91.00;;;;;;5028925;28;20056;-63
2022/12/15 11:24:42;;;;;;;5.75;4.00;;;13.20;91.10;;;;;;5046167;28;20489;-63
2022/12/15 11:27:15;;;;;;;10.55;4.18;;;13.80;89.50;;;;;;5046579;28;20056;-63
2022/12/15 11:29:59;;;;;;;8.02;4.10;;;13.70;88.90;;;;;;5029317;28;20064;-63
2022/12/15 11:32:29;;;;;;;5.75;3.83;;;14.10;87.90;;;;;;5044130;28;20550;-63
2022/12/15 11:34:56;;;;;;;6.38;3.90;;;13.60;89.10;;;;;;5028455;28;20488;-62
2022/12/15 11:37:41;;;;;;;6.72;4.10;;;13.80;88.20;;;;;;5045411;28;20044;-63
2022/12/15 11:40:33;;;;;;;6.45;4.13;;;12.90;88.10;;;;;;5027012;28;20484;-63
2022/12/15 11:43:29;;;;;;;4.95;3.28;;;13.00;88.60;;;;;;5034656;28;20126;-64
2022/12/15 11:46:12;;;;;;;8.43;4.50;;;13.00;88.50;;;;;;5022563;28;20064;-64
2022/12/15 11:48:47;;;;;;;6.47;3.90;;;13.20;88.20;;;;;;5031430;28;20060;-64
2022/12/15 11:51:21;;;;;;;6.30;3.50;;;13.50;89.20;;;;;;5026387;28;20041;-63
2022/12/15 11:54:13;;;;;;;5.70;3.50;;;13.70;88.70;;;;;;5044503;28;20049;-64
2022/12/15 11:56:46;;;;;;;6.13;3.60;;;13.70;86.30;;;;;;5044608;28;20053;-64
2022/12/15 11:59:40;;;;;;;6.28;4.07;;;13.30;87.90;;;;;;5027017;28;20045;-64
2022/12/15 12:02:27;;;;;;;8.77;3.40;;;13.30;87.60;;;;;;5028117;28;20492;-64
2022/12/15 12:05:10;;;;;;;8.68;4.57;;;13.50;87.70;;;;;;5029859;28;20049;-64
2022/12/15 12:07:44;;;;;;;6.65;3.90;;;13.60;87.40;;;;;;5033820;28;20061;-64
2022/12/15 12:10:23;;;;;;;7.18;3.60;;;13.30;87.90;;;;;;5033152;28;20052;-64
2022/12/15 12:12:59;;;;;;;7.95;4.18;;;12.90;87.50;;;;;;5050640;28;20132;-64
2022/12/15 12:15:32;;;;;;;8.27;3.72;;;13.00;88.00;;;;;;5051896;28;20106;-63
2022/12/15 12:18:06;;;;;;;7.30;3.65;;;13.60;88.70;;;;;;5033041;28;20400;-63
2022/12/15 12:20:41;;;;;;;9.15;3.95;;;12.80;88.30;;;;;;5033598;28;20045;-62
2022/12/15 12:23:16;;;;;;;5.55;3.55;;;12.60;89.70;;;;;;5033462;28;20048;-63
2022/12/15 12:25:51;;;;;;;8.95;3.90;;;12.60;89.70;;;;;;5033001;28;20049;-62
2022/12/15 12:28:25;;;;;;;9.30;3.90;;;12.90;89.50;;;;;;5050731;28;20048;-63
2022/12/15 12:30:53;;;;;;;8.95;3.70;;;13.60;88.70;;;;;;5055985;28;20056;-63
2022/12/15 12:33:29;;;;;;;6.28;4.03;;;12.90;87.80;;;;;;5033026;28;20052;-63
2022/12/15 12:36:00;;;;;;;8.68;3.70;;;12.70;88.60;;;;;;5033184;28;20040;-62
2022/12/15 12:38:31;;;;;;;8.07;4.32;;;13.20;89.10;;;;;;5032931;28;20059;-62
2022/12/15 12:41:04;;;;;;;9.40;4.15;;;12.40;89.40;;;;;;5051424;28;20415;-63
2022/12/15 12:43:35;;;;;;;8.70;4.43;;;13.70;90.00;;;;;;5051067;28;20512;-62
2022/12/15 12:46:08;;;;;;;9.25;4.03;;;12.70;90.00;;;;;;5032401;28;20516;-63
2022/12/15 12:48:40;;;;;;;7.10;3.45;;;13.20;88.90;;;;;;5051485;28;20060;-62
2022/12/15 12:51:26;;;;;;;5.88;3.50;;;13.70;88.80;;;;;;5033524;28;20533;-63
2022/12/15 12:53:54;;;;;;;6.05;3.38;;;13.60;87.70;;;;;;5049068;28;20485;-63
2022/12/15 12:56:42;;;;;;;6.72;3.47;;;13.70;87.50;;;;;;5051159;28;20060;-62
2022/12/15 12:59:36;;;;;;;8.55;3.65;;;13.10;87.50;;;;;;5051057;28;20045;-61
2022/12/15 13:02:36;;;;;;;8.60;3.97;;;12.30;89.40;;;;;;5049654;28;20103;-62
2022/12/15 13:05:23;;;;;;;6.70;4.03;;;12.70;88.80;;;;;;5051030;28;20049;-62
2022/12/15 13:07:55;;;;;;;7.78;3.53;;;13.00;87.50;;;;;;5032241;28;20052;-62
2022/12/15 13:10:23;;;;;;;8.20;3.60;;;13.20;88.40;;;;;;5032221;28;20056;-63
2022/12/15 13:12:51;;;;;;;6.15;3.50;;;12.90;88.80;;;;;;5039058;28;20052;-62
2022/12/15 13:15:33;;;;;;;6.72;3.53;;;12.60;88.10;;;;;;5038777;28;20510;-62
2022/12/15 13:18:07;;;;;;;11.00;4.03;;;12.80;89.50;;;;;;5053407;28;20049;-62
2022/12/15 13:20:36;;;;;;;9.18;3.83;;;12.30;89.70;;;;;;5041688;28;20110;-62
2022/12/15 13:23:36;;;;;;;8.73;3.85;;;12.30;90.00;;;;;;5046053;28;20057;-63
2022/12/15 13:26:18;;;;;;;6.47;3.72;;;12.10;90.20;;;;;;5041609;28;20677;-63
2022/12/15 13:28:50;;;;;;;10.07;4.30;;;11.70;90.30;;;;;;5053541;28;20053;-62
2022/12/15 13:31:33;;;;;;;5.90;3.83;;;10.40;91.80;;;;;;5052031;28;20056;-63
2022/12/15 13:34:20;;;;;;;11.55;4.50;;;9.20;94.10;;;;;;5052832;28;20079;-62
2022/12/15 13:36:50;;;;;;;8.75;4.28;;;8.10;97.10;;;;;;5051214;28;20045;-62
2022/12/15 13:39:54;;;;;;;9.15;4.15;;;7.90;99.90;;;;;;5043360;28;20059;-62
2022/12/15 13:42:33;;;;;;;9.40;4.18;;;6.50;99.90;;;;;;5054214;28;20044;-64
2022/12/15 13:45:41;;;;;;;7.40;3.85;;;6.10;99.90;;;;;;5046193;28;20408;-62
2022/12/15 13:48:25;;;;;;;8.93;4.05;;;6.70;99.90;;;;;;5030782;28;20156;-62
2022/12/15 13:50:59;;;;;;;8.55;4.07;;;6.60;99.90;;;;;;5024016;28;20469;-62
2022/12/15 13:53:28;;;;;;;7.75;3.38;;;6.10;99.90;;;;;;5049359;28;20049;-62
2022/12/15 13:56:05;;;;;;;8.13;4.10;;;5.50;99.90;;;;;;5033537;28;20053;-62
2022/12/15 13:58:40;;;;;;;8.45;4.75;;;5.30;99.90;;;;;;5034320;28;20053;-62
2022/12/15 14:01:20;;;;;;;8.55;3.90;;;5.10;99.90;;;;;;5036858;28;20064;-61
2022/12/15 14:04:05;;;;;;;9.05;3.72;;;4.80;99.90;;;;;;5028326;28;20060;-62
2022/12/15 14:06:37;;;;;;;7.45;3.65;;;4.70;99.90;;;;;;5034596;28;20053;-61
2022/12/15 14:09:06;;;;;;;10.88;4.35;;;4.60;99.90;;;;;;5050918;28;20055;-61
2022/12/15 14:11:36;;;;;;;8.63;4.68;;;4.50;99.90;;;;;;5040512;28;20053;-61
2022/12/15 14:14:04;;;;;;;7.05;4.30;;;4.40;99.90;;;;;;5032854;28;20128;-61
2022/12/15 14:16:34;;;;;;;10.18;4.57;;;4.30;99.90;;;;;;5013748;28;20106;-62
2022/12/15 14:19:14;;;;;;;9.57;4.25;;;4.30;99.90;;;;;;5030012;28;20494;-61
2022/12/15 14:21:49;;;;;;;14.82;4.78;;;4.20;99.90;;;;;;5018905;28;20060;-62
2022/12/15 14:24:26;;;;;;;8.82;4.68;;;4.20;99.90;;;;;;5010318;28;20053;-62
2022/12/15 14:26:53;;;;;;;7.53;4.38;;;4.10;99.90;;;;;;5012065;28;20056;-64
2022/12/15 14:29:20;;;;;;;7.22;4.00;;;4.00;99.90;;;;;;5012916;28;20049;-62
2022/12/15 14:31:51;;;;;;;10.38;5.25;;;4.00;99.90;;;;;;5015867;28;20076;-61
2022/12/15 14:34:32;;;;;;;10.00;4.57;;;3.90;99.90;;;;;;5029512;28;20049;-62
2022/12/15 14:37:03;;;;;;;9.50;4.25;;;4.60;99.90;;;;;;5016728;28;20053;-62
2022/12/15 14:39:35;;;;;;;8.32;4.15;;;3.80;99.90;;;;;;5014428;28;20493;-62
2022/12/15 14:42:03;;;;;;;8.70;5.10;;;3.80;99.90;;;;;;5016654;28;20041;-62
2022/12/15 14:44:33;;;;;;;6.28;4.53;;;3.70;99.90;;;;;;5015655;28;20057;-62
2022/12/15 14:47:04;;;;;;;12.23;5.05;;;3.60;99.90;;;;;;5015382;28;20065;-62
2022/12/15 14:49:36;;;;;;;;;;;3.70;99.90;;;;;;5016211;28;20503;-62
2022/12/15 14:52:05;;;;;;;9.52;4.60;;;3.60;99.90;;;;;;5013612;28;19921;-62
2022/12/15 14:54:35;;;;;;;8.15;4.50;;;3.50;99.90;;;;;;5030940;28;20052;-63
2022/12/15 14:57:03;;;;;;;12.32;5.25;;;3.50;99.90;;;;;;5015110;28;20444;-63
2022/12/15 14:59:34;;;;;;;10.75;5.15;;;3.50;99.90;;;;;;5032635;28;20127;-63
2022/12/15 15:02:14;;;;;;;12.93;6.22;;;3.50;99.90;;;;;;5033399;28;20038;-63
2022/12/15 15:04:42;;;;;;;13.73;5.57;;;3.40;99.90;;;;;;5015378;28;20061;-63
2022/12/15 15:07:17;;;;;;;9.40;4.68;;;3.50;99.90;;;;;;5032502;28;20049;-63
2022/12/15 15:09:46;;;;;;;11.82;5.50;;;3.40;99.90;;;;;;5036394;28;20512;-63
2022/12/15 15:12:18;;;;;;;12.30;5.30;;;3.30;99.90;;;;;;5014868;28;20041;-63
2022/12/15 15:14:47;;;;;;;14.18;4.90;;;3.30;99.90;;;;;;5014401;28;20057;-63
2022/12/15 15:17:24;;;;;;;9.70;5.28;;;4.00;99.90;;;;;;5032688;28;20045;-64
2022/12/15 15:19:56;;;;;;;10.80;4.97;;;3.20;99.90;;;;;;5015291;28;20064;-63
2022/12/15 15:22:38;;;;;;;8.85;5.00;;;3.20;99.90;;;;;;5014985;28;20053;-62
2022/12/15 15:25:27;;;;;;;11.25;4.88;;;3.10;99.90;;;;;;5015058;28;20045;-63
2022/12/15 15:28:11;;;;;;;10.35;4.43;;;2.90;99.90;;;;;;5031996;28;20417;-62
2022/12/15 15:30:42;;;;;;;10.43;5.82;;;2.70;99.90;;;;;;5014715;28;20053;-62
2022/12/15 15:33:11;;;;;;;12.48;5.53;;;2.60;99.90;;;;;;5015131;28;20424;-62
2022/12/15 15:35:41;;;;;;;13.52;5.05;;;2.40;99.90;;;;;;5014295;28;20050;-62
2022/12/15 15:38:16;;;;;;;15.82;6.03;;;2.30;99.90;;;;;;5014176;28;20077;-62
2022/12/15 15:40:47;;;;;;;11.20;5.68;;;2.30;99.90;;;;;;5019619;28;20073;-62